sensor_id;sensor_type;location;lat;lon;timestamp;P1;durP1;ratioP1;P2;durP2;ratioP2
49784;SDS011;35679;38.732;-121.358;2022-11-04T00:00:29;1.70;;;1.60;;
49784;SDS011;35679;38.732;-121.358;2022-11-04T00:03:19;1.60;;;1.60;;
49784;SDS011;35679;38.732;-121.358;2022-11-04T00:06:08;1.70;;;1.70;;
49784;SDS011;35679;38.732;-121.358;2022-11-04T00:08:58;1.60;;;1.60;;
49784;SDS011;35679;38.732;-121.358;2022-11-04T00:11:48;1.75;;;1.70;;
49784;SDS011;35679;38.732;-121.358;2022-11-04T00:14:56;1.50;;;1.50;;
49784;SDS011;35679;38.732;-121.358;2022-11-04T00:18:05;1.45;;;1.45;;
49784;SDS011;35679;38.732;-121.358;2022-11-04T00:20:55;1.55;;;1.55;;
49784;SDS011;35679;38.732;-121.358;2022-11-04T00:24:04;1.77;;;1.67;;
49784;SDS011;35679;38.732;-121.358;2022-11-04T00:27:14;1.50;;;1.50;;
49784;SDS011;35679;38.732;-121.358;2022-11-04T00:30:24;1.60;;;1.60;;
49784;SDS011;35679;38.732;-121.358;2022-11-04T00:33:14;1.40;;;1.40;;
49784;SDS011;35679;38.732;-121.358;2022-11-04T00:36:15;1.60;;;1.60;;
49784;SDS011;35679;38.732;-121.358;2022-11-04T00:39:05;2.15;;;2.05;;
49784;SDS011;35679;38.732;-121.358;2022-11-04T00:41:54;1.60;;;1.60;;
49784;SDS011;35679;38.732;-121.358;2022-11-04T00:44:43;1.60;;;1.60;;
49784;SDS011;35679;38.732;-121.358;2022-11-04T00:47:33;1.73;;;1.70;;
49784;SDS011;35679;38.732;-121.358;2022-11-04T00:50:22;1.50;;;1.50;;
49784;SDS011;35679;38.732;-121.358;2022-11-04T00:53:12;1.70;;;1.70;;
49784;SDS011;35679;38.732;-121.358;2022-11-04T00:56:02;1.50;;;1.50;;
49784;SDS011;35679;38.732;-121.358;2022-11-04T00:58:52;1.55;;;1.55;;
49784;SDS011;35679;38.732;-121.358;2022-11-04T01:01:42;1.52;;;1.52;;
49784;SDS011;35679;38.732;-121.358;2022-11-04T01:04:31;1.65;;;1.60;;
49784;SDS011;35679;38.732;-121.358;2022-11-04T01:07:21;1.40;;;1.40;;
49784;SDS011;35679;38.732;-121.358;2022-11-04T01:10:10;1.73;;;1.70;;
49784;SDS011;35679;38.732;-121.358;2022-11-04T01:13:00;1.50;;;1.50;;
49784;SDS011;35679;38.732;-121.358;2022-11-04T01:15:49;1.60;;;1.60;;
49784;SDS011;35679;38.732;-121.358;2022-11-04T01:18:39;1.63;;;1.63;;
49784;SDS011;35679;38.732;-121.358;2022-11-04T01:21:29;1.60;;;1.60;;
49784;SDS011;35679;38.732;-121.358;2022-11-04T01:24:18;1.30;;;1.30;;
49784;SDS011;35679;38.732;-121.358;2022-11-04T01:27:12;1.42;;;1.42;;
49784;SDS011;35679;38.732;-121.358;2022-11-04T01:30:01;1.60;;;1.60;;
49784;SDS011;35679;38.732;-121.358;2022-11-04T01:32:51;1.63;;;1.63;;
49784;SDS011;35679;38.732;-121.358;2022-11-04T01:35:40;1.40;;;1.40;;
49784;SDS011;35679;38.732;-121.358;2022-11-04T01:38:31;1.90;;;1.80;;
49784;SDS011;35679;38.732;-121.358;2022-11-04T01:41:21;1.60;;;1.60;;
49784;SDS011;35679;38.732;-121.358;2022-11-04T01:47:34;1.48;;;1.48;;
49784;SDS011;35679;38.732;-121.358;2022-11-04T01:50:29;1.60;;;1.60;;
49784;SDS011;35679;38.732;-121.358;2022-11-04T01:53:26;1.45;;;1.45;;
49784;SDS011;35679;38.732;-121.358;2022-11-04T01:56:19;1.60;;;1.60;;
49784;SDS011;35679;38.732;-121.358;2022-11-04T01:59:11;1.50;;;1.50;;
49784;SDS011;35679;38.732;-121.358;2022-11-04T02:02:06;1.52;;;1.52;;
49784;SDS011;35679;38.732;-121.358;2022-11-04T02:04:56;1.50;;;1.50;;
49784;SDS011;35679;38.732;-121.358;2022-11-04T02:07:47;1.50;;;1.50;;
49784;SDS011;35679;38.732;-121.358;2022-11-04T02:10:40;1.60;;;1.60;;
49784;SDS011;35679;38.732;-121.358;2022-11-04T02:13:34;1.50;;;1.50;;
49784;SDS011;35679;38.732;-121.358;2022-11-04T02:16:36;1.65;;;1.65;;
49784;SDS011;35679;38.732;-121.358;2022-11-04T02:19:52;1.40;;;1.40;;
49784;SDS011;35679;38.732;-121.358;2022-11-04T02:32:23;1.60;;;1.60;;
49784;SDS011;35679;38.732;-121.358;2022-11-04T02:38:44;1.60;;;1.60;;
49784;SDS011;35679;38.732;-121.358;2022-11-04T02:41:57;1.40;;;1.40;;
49784;SDS011;35679;38.732;-121.358;2022-11-04T02:48:16;1.48;;;1.48;;
49784;SDS011;35679;38.732;-121.358;2022-11-04T02:51:16;1.58;;;1.58;;
49784;SDS011;35679;38.732;-121.358;2022-11-04T02:54:18;1.33;;;1.33;;
49784;SDS011;35679;38.732;-121.358;2022-11-04T03:00:09;2.30;;;1.53;;
49784;SDS011;35679;38.732;-121.358;2022-11-04T03:03:08;1.30;;;1.30;;
49784;SDS011;35679;38.732;-121.358;2022-11-04T03:06:01;1.40;;;1.40;;
49784;SDS011;35679;38.732;-121.358;2022-11-04T03:08:56;1.40;;;1.40;;
49784;SDS011;35679;38.732;-121.358;2022-11-04T03:11:49;1.50;;;1.50;;
49784;SDS011;35679;38.732;-121.358;2022-11-04T03:14:47;1.50;;;1.50;;
49784;SDS011;35679;38.732;-121.358;2022-11-04T03:17:48;1.52;;;1.52;;
49784;SDS011;35679;38.732;-121.358;2022-11-04T03:20:44;1.77;;;1.50;;
49784;SDS011;35679;38.732;-121.358;2022-11-04T03:23:36;1.75;;;1.75;;
49784;SDS011;35679;38.732;-121.358;2022-11-04T03:26:30;1.48;;;1.48;;
49784;SDS011;35679;38.732;-121.358;2022-11-04T03:29:29;1.40;;;1.40;;
49784;SDS011;35679;38.732;-121.358;2022-11-04T03:35:12;1.55;;;1.52;;
49784;SDS011;35679;38.732;-121.358;2022-11-04T03:38:03;1.40;;;1.40;;
49784;SDS011;35679;38.732;-121.358;2022-11-04T03:40:53;1.48;;;1.48;;
49784;SDS011;35679;38.732;-121.358;2022-11-04T03:43:42;1.50;;;1.50;;
49784;SDS011;35679;38.732;-121.358;2022-11-04T03:46:32;1.60;;;1.50;;
49784;SDS011;35679;38.732;-121.358;2022-11-04T03:49:21;1.63;;;1.50;;
49784;SDS011;35679;38.732;-121.358;2022-11-04T03:52:12;1.52;;;1.52;;
49784;SDS011;35679;38.732;-121.358;2022-11-04T03:55:02;1.63;;;1.52;;
49784;SDS011;35679;38.732;-121.358;2022-11-04T03:58:02;1.50;;;1.50;;
49784;SDS011;35679;38.732;-121.358;2022-11-04T04:01:25;1.52;;;1.52;;
49784;SDS011;35679;38.732;-121.358;2022-11-04T04:04:19;1.80;;;1.70;;
49784;SDS011;35679;38.732;-121.358;2022-11-04T04:11:06;1.73;;;1.70;;
49784;SDS011;35679;38.732;-121.358;2022-11-04T04:13:40;1.42;;;1.42;;
49784;SDS011;35679;38.732;-121.358;2022-11-04T04:16:43;1.83;;;1.75;;
49784;SDS011;35679;38.732;-121.358;2022-11-04T04:19:35;1.52;;;1.52;;
49784;SDS011;35679;38.732;-121.358;2022-11-04T04:22:26;1.98;;;1.88;;
49784;SDS011;35679;38.732;-121.358;2022-11-04T04:25:37;1.60;;;1.60;;
49784;SDS011;35679;38.732;-121.358;2022-11-04T04:28:45;1.52;;;1.52;;
49784;SDS011;35679;38.732;-121.358;2022-11-04T04:31:36;1.90;;;1.80;;
49784;SDS011;35679;38.732;-121.358;2022-11-04T04:34:45;1.70;;;1.63;;
49784;SDS011;35679;38.732;-121.358;2022-11-04T04:37:34;1.67;;;1.67;;
49784;SDS011;35679;38.732;-121.358;2022-11-04T04:40:24;1.67;;;1.67;;
49784;SDS011;35679;38.732;-121.358;2022-11-04T04:43:37;1.70;;;1.70;;
49784;SDS011;35679;38.732;-121.358;2022-11-04T04:46:48;1.50;;;1.50;;
49784;SDS011;35679;38.732;-121.358;2022-11-04T04:49:52;1.80;;;1.70;;
49784;SDS011;35679;38.732;-121.358;2022-11-04T04:52:49;1.70;;;1.70;;
49784;SDS011;35679;38.732;-121.358;2022-11-04T04:55:40;1.80;;;1.70;;
49784;SDS011;35679;38.732;-121.358;2022-11-04T04:58:30;1.77;;;1.77;;
49784;SDS011;35679;38.732;-121.358;2022-11-04T05:01:19;1.80;;;1.80;;
49784;SDS011;35679;38.732;-121.358;2022-11-04T05:04:09;1.88;;;1.80;;
49784;SDS011;35679;38.732;-121.358;2022-11-04T05:06:59;1.52;;;1.52;;
49784;SDS011;35679;38.732;-121.358;2022-11-04T05:09:49;1.80;;;1.80;;
49784;SDS011;35679;38.732;-121.358;2022-11-04T05:12:39;1.63;;;1.63;;
49784;SDS011;35679;38.732;-121.358;2022-11-04T05:15:47;1.60;;;1.60;;
49784;SDS011;35679;38.732;-121.358;2022-11-04T05:18:36;1.88;;;1.80;;
49784;SDS011;35679;38.732;-121.358;2022-11-04T05:21:25;1.77;;;1.67;;
49784;SDS011;35679;38.732;-121.358;2022-11-04T05:24:14;1.70;;;1.70;;
49784;SDS011;35679;38.732;-121.358;2022-11-04T05:27:04;1.60;;;1.60;;
49784;SDS011;35679;38.732;-121.358;2022-11-04T05:29:53;1.63;;;1.63;;
49784;SDS011;35679;38.732;-121.358;2022-11-04T05:32:43;2.08;;;1.98;;
49784;SDS011;35679;38.732;-121.358;2022-11-04T05:35:32;1.83;;;1.80;;
49784;SDS011;35679;38.732;-121.358;2022-11-04T05:38:22;1.85;;;1.80;;
49784;SDS011;35679;38.732;-121.358;2022-11-04T05:41:11;1.70;;;1.70;;
49784;SDS011;35679;38.732;-121.358;2022-11-04T05:44:12;1.88;;;1.77;;
49784;SDS011;35679;38.732;-121.358;2022-11-04T05:47:03;2.03;;;1.92;;
49784;SDS011;35679;38.732;-121.358;2022-11-04T05:49:52;1.77;;;1.77;;
49784;SDS011;35679;38.732;-121.358;2022-11-04T05:52:41;1.80;;;1.80;;
49784;SDS011;35679;38.732;-121.358;2022-11-04T05:55:30;1.85;;;1.75;;
49784;SDS011;35679;38.732;-121.358;2022-11-04T05:58:20;1.73;;;1.63;;
49784;SDS011;35679;38.732;-121.358;2022-11-04T06:01:26;1.83;;;1.80;;
49784;SDS011;35679;38.732;-121.358;2022-11-04T06:04:20;1.80;;;1.75;;
49784;SDS011;35679;38.732;-121.358;2022-11-04T06:07:09;2.00;;;1.90;;
49784;SDS011;35679;38.732;-121.358;2022-11-04T06:09:59;2.00;;;1.90;;
49784;SDS011;35679;38.732;-121.358;2022-11-04T06:12:48;2.05;;;1.95;;
49784;SDS011;35679;38.732;-121.358;2022-11-04T06:15:38;2.08;;;1.98;;
49784;SDS011;35679;38.732;-121.358;2022-11-04T06:18:27;2.10;;;2.00;;
49784;SDS011;35679;38.732;-121.358;2022-11-04T06:24:07;1.90;;;1.80;;
49784;SDS011;35679;38.732;-121.358;2022-11-04T06:26:56;1.90;;;1.80;;
49784;SDS011;35679;38.732;-121.358;2022-11-04T06:29:45;1.90;;;1.80;;
49784;SDS011;35679;38.732;-121.358;2022-11-04T06:32:35;1.70;;;1.70;;
49784;SDS011;35679;38.732;-121.358;2022-11-04T06:35:24;1.83;;;1.83;;
49784;SDS011;35679;38.732;-121.358;2022-11-04T06:38:13;2.00;;;1.90;;
49784;SDS011;35679;38.732;-121.358;2022-11-04T06:41:03;2.00;;;1.90;;
49784;SDS011;35679;38.732;-121.358;2022-11-04T06:43:54;2.10;;;2.00;;
49784;SDS011;35679;38.732;-121.358;2022-11-04T06:46:43;2.00;;;1.90;;
49784;SDS011;35679;38.732;-121.358;2022-11-04T06:49:32;2.10;;;2.00;;
49784;SDS011;35679;38.732;-121.358;2022-11-04T06:52:22;2.30;;;2.20;;
49784;SDS011;35679;38.732;-121.358;2022-11-04T06:55:11;2.00;;;1.90;;
49784;SDS011;35679;38.732;-121.358;2022-11-04T06:58:01;2.35;;;2.25;;
49784;SDS011;35679;38.732;-121.358;2022-11-04T07:00:51;2.08;;;1.98;;
49784;SDS011;35679;38.732;-121.358;2022-11-04T07:03:41;2.20;;;2.10;;
49784;SDS011;35679;38.732;-121.358;2022-11-04T07:06:30;2.10;;;2.00;;
49784;SDS011;35679;38.732;-121.358;2022-11-04T07:09:22;2.15;;;2.08;;
49784;SDS011;35679;38.732;-121.358;2022-11-04T07:12:11;1.95;;;1.90;;
49784;SDS011;35679;38.732;-121.358;2022-11-04T07:15:01;2.10;;;2.00;;
49784;SDS011;35679;38.732;-121.358;2022-11-04T07:17:50;2.10;;;2.00;;
49784;SDS011;35679;38.732;-121.358;2022-11-04T07:20:40;2.20;;;2.10;;
49784;SDS011;35679;38.732;-121.358;2022-11-04T07:23:29;2.13;;;2.03;;
49784;SDS011;35679;38.732;-121.358;2022-11-04T07:26:18;2.33;;;2.22;;
49784;SDS011;35679;38.732;-121.358;2022-11-04T07:29:08;2.40;;;2.30;;
49784;SDS011;35679;38.732;-121.358;2022-11-04T07:31:58;2.40;;;2.30;;
49784;SDS011;35679;38.732;-121.358;2022-11-04T07:34:47;2.30;;;2.20;;
49784;SDS011;35679;38.732;-121.358;2022-11-04T07:37:37;2.33;;;2.22;;
49784;SDS011;35679;38.732;-121.358;2022-11-04T07:40:26;2.08;;;2.00;;
49784;SDS011;35679;38.732;-121.358;2022-11-04T07:43:15;2.15;;;2.05;;
49784;SDS011;35679;38.732;-121.358;2022-11-04T07:46:09;2.33;;;2.22;;
49784;SDS011;35679;38.732;-121.358;2022-11-04T07:49:02;2.40;;;2.30;;
49784;SDS011;35679;38.732;-121.358;2022-11-04T07:51:51;2.33;;;2.22;;
49784;SDS011;35679;38.732;-121.358;2022-11-04T07:54:41;2.55;;;2.42;;
49784;SDS011;35679;38.732;-121.358;2022-11-04T07:57:30;2.58;;;2.47;;
49784;SDS011;35679;38.732;-121.358;2022-11-04T08:00:19;2.40;;;2.30;;
49784;SDS011;35679;38.732;-121.358;2022-11-04T08:03:09;2.58;;;2.40;;
49784;SDS011;35679;38.732;-121.358;2022-11-04T08:05:59;2.20;;;2.10;;
49784;SDS011;35679;38.732;-121.358;2022-11-04T08:08:49;3.05;;;2.33;;
49784;SDS011;35679;38.732;-121.358;2022-11-04T08:11:41;2.38;;;2.28;;
49784;SDS011;35679;38.732;-121.358;2022-11-04T08:14:30;2.38;;;2.28;;
49784;SDS011;35679;38.732;-121.358;2022-11-04T08:17:19;2.45;;;2.35;;
49784;SDS011;35679;38.732;-121.358;2022-11-04T08:20:09;2.60;;;2.40;;
49784;SDS011;35679;38.732;-121.358;2022-11-04T08:22:59;2.53;;;2.33;;
49784;SDS011;35679;38.732;-121.358;2022-11-04T08:25:48;2.38;;;2.22;;
49784;SDS011;35679;38.732;-121.358;2022-11-04T08:28:38;2.67;;;2.47;;
49784;SDS011;35679;38.732;-121.358;2022-11-04T08:31:28;2.90;;;2.30;;
49784;SDS011;35679;38.732;-121.358;2022-11-04T08:34:19;2.55;;;2.45;;
49784;SDS011;35679;38.732;-121.358;2022-11-04T08:37:08;2.67;;;2.47;;
49784;SDS011;35679;38.732;-121.358;2022-11-04T08:40:00;2.50;;;2.30;;
49784;SDS011;35679;38.732;-121.358;2022-11-04T08:42:50;2.70;;;2.50;;
49784;SDS011;35679;38.732;-121.358;2022-11-04T08:45:44;3.03;;;2.80;;
49784;SDS011;35679;38.732;-121.358;2022-11-04T08:48:34;2.78;;;2.58;;
49784;SDS011;35679;38.732;-121.358;2022-11-04T08:51:25;2.58;;;2.40;;
49784;SDS011;35679;38.732;-121.358;2022-11-04T08:54:15;2.63;;;2.50;;
49784;SDS011;35679;38.732;-121.358;2022-11-04T08:57:04;2.58;;;2.47;;
49784;SDS011;35679;38.732;-121.358;2022-11-04T08:59:56;2.30;;;2.20;;
49784;SDS011;35679;38.732;-121.358;2022-11-04T09:06:00;2.70;;;2.60;;
49784;SDS011;35679;38.732;-121.358;2022-11-04T09:08:50;3.80;;;2.40;;
49784;SDS011;35679;38.732;-121.358;2022-11-04T09:11:42;2.90;;;2.70;;
49784;SDS011;35679;38.732;-121.358;2022-11-04T09:14:33;3.00;;;2.80;;
49784;SDS011;35679;38.732;-121.358;2022-11-04T09:17:22;2.80;;;2.60;;
49784;SDS011;35679;38.732;-121.358;2022-11-04T09:20:11;2.58;;;2.47;;
49784;SDS011;35679;38.732;-121.358;2022-11-04T09:23:01;2.40;;;2.30;;
49784;SDS011;35679;38.732;-121.358;2022-11-04T09:25:51;3.15;;;2.70;;
49784;SDS011;35679;38.732;-121.358;2022-11-04T09:28:41;2.72;;;2.50;;
49784;SDS011;35679;38.732;-121.358;2022-11-04T09:31:31;2.75;;;2.58;;
49784;SDS011;35679;38.732;-121.358;2022-11-04T09:34:20;2.72;;;2.53;;
49784;SDS011;35679;38.732;-121.358;2022-11-04T09:37:09;2.75;;;2.55;;
49784;SDS011;35679;38.732;-121.358;2022-11-04T09:39:58;2.83;;;2.72;;
49784;SDS011;35679;38.732;-121.358;2022-11-04T09:42:54;2.80;;;2.60;;
49784;SDS011;35679;38.732;-121.358;2022-11-04T09:45:48;3.33;;;3.10;;
49784;SDS011;35679;38.732;-121.358;2022-11-04T09:48:38;2.80;;;2.60;;
49784;SDS011;35679;38.732;-121.358;2022-11-04T09:51:33;2.83;;;2.63;;
49784;SDS011;35679;38.732;-121.358;2022-11-04T09:54:42;2.88;;;2.67;;
49784;SDS011;35679;38.732;-121.358;2022-11-04T09:57:38;3.05;;;2.75;;
49784;SDS011;35679;38.732;-121.358;2022-11-04T10:00:29;3.47;;;2.70;;
49784;SDS011;35679;38.732;-121.358;2022-11-04T10:06:44;3.13;;;2.83;;
49784;SDS011;35679;38.732;-121.358;2022-11-04T10:13:24;3.08;;;2.83;;
49784;SDS011;35679;38.732;-121.358;2022-11-04T10:16:38;3.15;;;2.95;;
49784;SDS011;35679;38.732;-121.358;2022-11-04T10:25:55;2.95;;;2.75;;
49784;SDS011;35679;38.732;-121.358;2022-11-04T10:29:03;3.25;;;2.95;;
49784;SDS011;35679;38.732;-121.358;2022-11-04T10:31:54;3.40;;;3.10;;
49784;SDS011;35679;38.732;-121.358;2022-11-04T10:34:49;3.40;;;3.10;;
49784;SDS011;35679;38.732;-121.358;2022-11-04T10:37:42;3.45;;;3.15;;
49784;SDS011;35679;38.732;-121.358;2022-11-04T10:40:34;3.50;;;3.20;;
49784;SDS011;35679;38.732;-121.358;2022-11-04T10:43:29;3.38;;;3.17;;
49784;SDS011;35679;38.732;-121.358;2022-11-04T10:46:28;4.20;;;3.17;;
49784;SDS011;35679;38.732;-121.358;2022-11-04T10:49:36;3.30;;;3.00;;
49784;SDS011;35679;38.732;-121.358;2022-11-04T10:52:50;3.75;;;3.42;;
49784;SDS011;35679;38.732;-121.358;2022-11-04T11:02:10;3.80;;;3.50;;
49784;SDS011;35679;38.732;-121.358;2022-11-04T11:05:13;3.50;;;3.20;;
49784;SDS011;35679;38.732;-121.358;2022-11-04T11:08:14;3.22;;;3.03;;
49784;SDS011;35679;38.732;-121.358;2022-11-04T11:11:36;3.35;;;3.05;;
49784;SDS011;35679;38.732;-121.358;2022-11-04T11:17:19;3.40;;;3.13;;
49784;SDS011;35679;38.732;-121.358;2022-11-04T11:23:04;3.10;;;2.90;;
49784;SDS011;35679;38.732;-121.358;2022-11-04T11:25:57;3.35;;;3.15;;
49784;SDS011;35679;38.732;-121.358;2022-11-04T11:28:48;3.97;;;3.40;;
49784;SDS011;35679;38.732;-121.358;2022-11-04T11:31:45;3.17;;;2.97;;
49784;SDS011;35679;38.732;-121.358;2022-11-04T11:34:36;3.15;;;2.95;;
49784;SDS011;35679;38.732;-121.358;2022-11-04T11:37:26;3.67;;;3.33;;
49784;SDS011;35679;38.732;-121.358;2022-11-04T11:40:28;3.75;;;3.45;;
49784;SDS011;35679;38.732;-121.358;2022-11-04T11:43:26;3.53;;;3.30;;
49784;SDS011;35679;38.732;-121.358;2022-11-04T11:46:24;3.40;;;3.20;;
49784;SDS011;35679;38.732;-121.358;2022-11-04T11:49:24;3.33;;;3.13;;
49784;SDS011;35679;38.732;-121.358;2022-11-04T11:55:26;3.65;;;3.30;;
49784;SDS011;35679;38.732;-121.358;2022-11-04T12:02:03;4.15;;;3.65;;
49784;SDS011;35679;38.732;-121.358;2022-11-04T12:05:22;3.50;;;3.20;;
49784;SDS011;35679;38.732;-121.358;2022-11-04T12:08:54;3.70;;;3.40;;
49784;SDS011;35679;38.732;-121.358;2022-11-04T12:12:14;3.72;;;3.40;;
49784;SDS011;35679;38.732;-121.358;2022-11-04T12:15:29;4.05;;;3.67;;
49784;SDS011;35679;38.732;-121.358;2022-11-04T12:25:07;3.72;;;3.42;;
49784;SDS011;35679;38.732;-121.358;2022-11-04T12:28:09;3.88;;;3.47;;
49784;SDS011;35679;38.732;-121.358;2022-11-04T12:40:20;3.97;;;3.25;;
49784;SDS011;35679;38.732;-121.358;2022-11-04T12:43:16;3.70;;;3.40;;
49784;SDS011;35679;38.732;-121.358;2022-11-04T12:56:09;3.60;;;3.30;;
49784;SDS011;35679;38.732;-121.358;2022-11-04T13:02:00;4.33;;;3.23;;
49784;SDS011;35679;38.732;-121.358;2022-11-04T13:08:14;3.80;;;3.45;;
49784;SDS011;35679;38.732;-121.358;2022-11-04T13:11:25;4.00;;;3.70;;
49784;SDS011;35679;38.732;-121.358;2022-11-04T13:14:18;3.80;;;3.50;;
49784;SDS011;35679;38.732;-121.358;2022-11-04T13:17:18;3.78;;;3.30;;
49784;SDS011;35679;38.732;-121.358;2022-11-04T13:23:31;4.18;;;3.78;;
49784;SDS011;35679;38.732;-121.358;2022-11-04T13:26:25;4.72;;;3.58;;
49784;SDS011;35679;38.732;-121.358;2022-11-04T13:29:15;3.47;;;3.25;;
49784;SDS011;35679;38.732;-121.358;2022-11-04T13:32:15;3.67;;;3.40;;
49784;SDS011;35679;38.732;-121.358;2022-11-04T13:35:16;4.05;;;3.70;;
49784;SDS011;35679;38.732;-121.358;2022-11-04T13:38:21;3.63;;;3.33;;
49784;SDS011;35679;38.732;-121.358;2022-11-04T13:44:28;3.60;;;3.30;;
49784;SDS011;35679;38.732;-121.358;2022-11-04T13:47:34;5.20;;;3.28;;
49784;SDS011;35679;38.732;-121.358;2022-11-04T13:50:34;4.00;;;3.60;;
49784;SDS011;35679;38.732;-121.358;2022-11-04T13:56:41;4.13;;;3.70;;
49784;SDS011;35679;38.732;-121.358;2022-11-04T13:59:31;4.13;;;3.63;;
49784;SDS011;35679;38.732;-121.358;2022-11-04T14:05:55;5.43;;;3.70;;
49784;SDS011;35679;38.732;-121.358;2022-11-04T14:08:28;4.25;;;3.85;;
49784;SDS011;35679;38.732;-121.358;2022-11-04T14:11:18;3.90;;;3.50;;
49784;SDS011;35679;38.732;-121.358;2022-11-04T14:14:14;3.90;;;3.60;;
49784;SDS011;35679;38.732;-121.358;2022-11-04T14:20:34;5.57;;;3.15;;
49784;SDS011;35679;38.732;-121.358;2022-11-04T14:23:24;4.93;;;3.80;;
49784;SDS011;35679;38.732;-121.358;2022-11-04T14:26:18;4.25;;;3.40;;
49784;SDS011;35679;38.732;-121.358;2022-11-04T14:29:32;6.65;;;3.55;;
49784;SDS011;35679;38.732;-121.358;2022-11-04T14:32:24;3.50;;;3.20;;
49784;SDS011;35679;38.732;-121.358;2022-11-04T14:35:19;4.03;;;3.63;;
49784;SDS011;35679;38.732;-121.358;2022-11-04T14:38:19;4.38;;;3.70;;
49784;SDS011;35679;38.732;-121.358;2022-11-04T14:41:59;4.35;;;3.50;;
49784;SDS011;35679;38.732;-121.358;2022-11-04T14:47:23;3.67;;;3.38;;
49784;SDS011;35679;38.732;-121.358;2022-11-04T14:50:17;3.92;;;3.40;;
49784;SDS011;35679;38.732;-121.358;2022-11-04T14:53:36;4.22;;;3.50;;
49784;SDS011;35679;38.732;-121.358;2022-11-04T14:56:26;4.53;;;3.58;;
49784;SDS011;35679;38.732;-121.358;2022-11-04T14:59:25;4.32;;;3.50;;
49784;SDS011;35679;38.732;-121.358;2022-11-04T15:02:24;3.60;;;3.30;;
49784;SDS011;35679;38.732;-121.358;2022-11-04T15:05:36;4.22;;;3.83;;
49784;SDS011;35679;38.732;-121.358;2022-11-04T15:11:23;4.35;;;3.60;;
49784;SDS011;35679;38.732;-121.358;2022-11-04T15:14:32;5.05;;;3.60;;
49784;SDS011;35679;38.732;-121.358;2022-11-04T15:17:25;3.90;;;3.50;;
49784;SDS011;35679;38.732;-121.358;2022-11-04T15:20:23;3.45;;;3.15;;
49784;SDS011;35679;38.732;-121.358;2022-11-04T15:23:15;4.07;;;3.67;;
49784;SDS011;35679;38.732;-121.358;2022-11-04T15:26:14;3.38;;;3.08;;
49784;SDS011;35679;38.732;-121.358;2022-11-04T15:29:16;3.83;;;3.28;;
49784;SDS011;35679;38.732;-121.358;2022-11-04T15:32:14;4.20;;;3.67;;
49784;SDS011;35679;38.732;-121.358;2022-11-04T15:35:05;3.90;;;3.45;;
49784;SDS011;35679;38.732;-121.358;2022-11-04T15:38:00;3.75;;;3.45;;
49784;SDS011;35679;38.732;-121.358;2022-11-04T15:40:51;3.88;;;3.50;;
49784;SDS011;35679;38.732;-121.358;2022-11-04T15:43:40;4.40;;;3.80;;
49784;SDS011;35679;38.732;-121.358;2022-11-04T15:46:30;3.90;;;3.55;;
49784;SDS011;35679;38.732;-121.358;2022-11-04T15:49:20;3.75;;;3.40;;
49784;SDS011;35679;38.732;-121.358;2022-11-04T15:52:13;3.70;;;3.40;;
49784;SDS011;35679;38.732;-121.358;2022-11-04T15:55:17;4.63;;;3.53;;
49784;SDS011;35679;38.732;-121.358;2022-11-04T15:58:13;3.53;;;3.22;;
49784;SDS011;35679;38.732;-121.358;2022-11-04T16:01:03;4.57;;;3.60;;
49784;SDS011;35679;38.732;-121.358;2022-11-04T16:03:54;3.67;;;3.38;;
49784;SDS011;35679;38.732;-121.358;2022-11-04T16:06:45;3.85;;;3.45;;
49784;SDS011;35679;38.732;-121.358;2022-11-04T16:09:51;4.05;;;3.70;;
49784;SDS011;35679;38.732;-121.358;2022-11-04T16:12:42;3.60;;;3.10;;
49784;SDS011;35679;38.732;-121.358;2022-11-04T16:15:34;4.05;;;3.65;;
49784;SDS011;35679;38.732;-121.358;2022-11-04T16:21:27;3.50;;;3.20;;
49784;SDS011;35679;38.732;-121.358;2022-11-04T16:24:24;3.40;;;3.20;;
49784;SDS011;35679;38.732;-121.358;2022-11-04T16:27:19;4.88;;;3.40;;
49784;SDS011;35679;38.732;-121.358;2022-11-04T16:30:21;4.47;;;3.40;;
49784;SDS011;35679;38.732;-121.358;2022-11-04T16:33:15;4.10;;;3.75;;
49784;SDS011;35679;38.732;-121.358;2022-11-04T16:36:13;3.92;;;3.58;;
49784;SDS011;35679;38.732;-121.358;2022-11-04T16:39:17;3.70;;;3.40;;
49784;SDS011;35679;38.732;-121.358;2022-11-04T16:42:08;3.83;;;3.42;;
49784;SDS011;35679;38.732;-121.358;2022-11-04T16:47:53;4.05;;;3.53;;
49784;SDS011;35679;38.732;-121.358;2022-11-04T16:50:46;3.78;;;3.17;;
49784;SDS011;35679;38.732;-121.358;2022-11-04T16:53:36;3.65;;;3.35;;
49784;SDS011;35679;38.732;-121.358;2022-11-04T16:56:25;3.80;;;3.17;;
49784;SDS011;35679;38.732;-121.358;2022-11-04T16:59:15;3.60;;;3.25;;
49784;SDS011;35679;38.732;-121.358;2022-11-04T17:02:13;3.58;;;3.20;;
49784;SDS011;35679;38.732;-121.358;2022-11-04T17:05:10;4.07;;;3.63;;
49784;SDS011;35679;38.732;-121.358;2022-11-04T17:08:00;3.92;;;3.25;;
49784;SDS011;35679;38.732;-121.358;2022-11-04T17:10:52;4.35;;;3.50;;
49784;SDS011;35679;38.732;-121.358;2022-11-04T17:13:42;3.40;;;3.20;;
49784;SDS011;35679;38.732;-121.358;2022-11-04T17:16:31;3.95;;;3.45;;
49784;SDS011;35679;38.732;-121.358;2022-11-04T17:19:20;4.38;;;3.72;;
49784;SDS011;35679;38.732;-121.358;2022-11-04T17:22:10;4.38;;;3.45;;
49784;SDS011;35679;38.732;-121.358;2022-11-04T17:24:59;3.25;;;2.95;;
49784;SDS011;35679;38.732;-121.358;2022-11-04T17:27:49;4.45;;;3.67;;
49784;SDS011;35679;38.732;-121.358;2022-11-04T17:30:39;3.50;;;3.20;;
49784;SDS011;35679;38.732;-121.358;2022-11-04T17:33:31;3.55;;;3.25;;
49784;SDS011;35679;38.732;-121.358;2022-11-04T17:36:21;3.75;;;3.45;;
49784;SDS011;35679;38.732;-121.358;2022-11-04T17:39:11;4.07;;;3.40;;
49784;SDS011;35679;38.732;-121.358;2022-11-04T17:42:00;3.65;;;3.35;;
49784;SDS011;35679;38.732;-121.358;2022-11-04T17:45:08;3.60;;;3.25;;
49784;SDS011;35679;38.732;-121.358;2022-11-04T17:48:02;3.38;;;3.08;;
49784;SDS011;35679;38.732;-121.358;2022-11-04T17:50:52;3.90;;;3.42;;
49784;SDS011;35679;38.732;-121.358;2022-11-04T17:53:42;3.58;;;3.25;;
49784;SDS011;35679;38.732;-121.358;2022-11-04T17:56:32;3.85;;;3.45;;
49784;SDS011;35679;38.732;-121.358;2022-11-04T17:59:21;3.33;;;3.03;;
49784;SDS011;35679;38.732;-121.358;2022-11-04T18:02:14;3.63;;;3.33;;
49784;SDS011;35679;38.732;-121.358;2022-11-04T18:05:04;4.05;;;3.65;;
49784;SDS011;35679;38.732;-121.358;2022-11-04T18:07:54;3.30;;;3.00;;
49784;SDS011;35679;38.732;-121.358;2022-11-04T18:10:45;3.50;;;3.15;;
49784;SDS011;35679;38.732;-121.358;2022-11-04T18:13:35;3.30;;;3.00;;
49784;SDS011;35679;38.732;-121.358;2022-11-04T18:16:25;3.40;;;3.10;;
49784;SDS011;35679;38.732;-121.358;2022-11-04T18:19:18;3.45;;;3.15;;
49784;SDS011;35679;38.732;-121.358;2022-11-04T18:22:08;3.08;;;2.88;;
49784;SDS011;35679;38.732;-121.358;2022-11-04T18:24:59;3.40;;;3.10;;
49784;SDS011;35679;38.732;-121.358;2022-11-04T18:27:48;3.40;;;3.10;;
49784;SDS011;35679;38.732;-121.358;2022-11-04T18:30:38;3.42;;;3.13;;
49784;SDS011;35679;38.732;-121.358;2022-11-04T18:33:28;3.92;;;3.50;;
49784;SDS011;35679;38.732;-121.358;2022-11-04T18:36:18;3.45;;;3.15;;
49784;SDS011;35679;38.732;-121.358;2022-11-04T18:39:09;3.40;;;3.10;;
49784;SDS011;35679;38.732;-121.358;2022-11-04T18:42:00;3.50;;;3.20;;
49784;SDS011;35679;38.732;-121.358;2022-11-04T18:44:49;3.25;;;2.97;;
49784;SDS011;35679;38.732;-121.358;2022-11-04T18:47:39;4.57;;;3.30;;
49784;SDS011;35679;38.732;-121.358;2022-11-04T18:50:28;3.45;;;3.10;;